sensor_id;sensor_type;location;lat;lon;timestamp;P1;durP1;ratioP1;P2;durP2;ratioP2
43519;SDS011;46848;51.980;5.918;2023-09-19T00:01:38;7.18;;;1.55;;
43519;SDS011;46848;51.980;5.918;2023-09-19T00:04:11;2.53;;;0.90;;
43519;SDS011;46848;51.980;5.918;2023-09-19T00:06:37;4.32;;;1.05;;
43519;SDS011;46848;51.980;5.918;2023-09-19T00:09:06;5.80;;;1.17;;
43519;SDS011;46848;51.980;5.918;2023-09-19T00:11:35;5.00;;;1.20;;
43519;SDS011;46848;51.980;5.918;2023-09-19T00:14:02;2.58;;;1.02;;
43519;SDS011;46848;51.980;5.918;2023-09-19T00:16:28;3.67;;;0.82;;
43519;SDS011;46848;51.980;5.918;2023-09-19T00:18:53;2.92;;;1.13;;
43519;SDS011;46848;51.980;5.918;2023-09-19T00:21:20;4.60;;;1.10;;
43519;SDS011;46848;51.980;5.918;2023-09-19T00:23:45;3.67;;;1.00;;
43519;SDS011;46848;51.980;5.918;2023-09-19T00:26:11;7.95;;;1.58;;
43519;SDS011;46848;51.980;5.918;2023-09-19T00:28:37;4.57;;;1.35;;
43519;SDS011;46848;51.980;5.918;2023-09-19T00:31:03;11.50;;;1.65;;
43519;SDS011;46848;51.980;5.918;2023-09-19T00:33:30;5.90;;;1.48;;
43519;SDS011;46848;51.980;5.918;2023-09-19T00:35:56;6.60;;;1.48;;
43519;SDS011;46848;51.980;5.918;2023-09-19T00:38:26;8.02;;;2.08;;
43519;SDS011;46848;51.980;5.918;2023-09-19T00:40:52;8.35;;;1.95;;
43519;SDS011;46848;51.980;5.918;2023-09-19T00:43:19;6.57;;;1.60;;
43519;SDS011;46848;51.980;5.918;2023-09-19T00:45:47;7.78;;;1.95;;
43519;SDS011;46848;51.980;5.918;2023-09-19T00:48:13;7.25;;;1.60;;
43519;SDS011;46848;51.980;5.918;2023-09-19T00:50:41;5.88;;;1.55;;
43519;SDS011;46848;51.980;5.918;2023-09-19T00:53:08;5.82;;;1.52;;
43519;SDS011;46848;51.980;5.918;2023-09-19T00:55:35;6.93;;;1.58;;
43519;SDS011;46848;51.980;5.918;2023-09-19T00:58:02;7.78;;;1.67;;
43519;SDS011;46848;51.980;5.918;2023-09-19T01:00:28;8.80;;;2.00;;
43519;SDS011;46848;51.980;5.918;2023-09-19T01:02:54;5.65;;;1.83;;
43519;SDS011;46848;51.980;5.918;2023-09-19T01:05:19;4.63;;;1.48;;
43519;SDS011;46848;51.980;5.918;2023-09-19T01:07:45;6.68;;;1.40;;
43519;SDS011;46848;51.980;5.918;2023-09-19T01:10:14;5.97;;;1.80;;
43519;SDS011;46848;51.980;5.918;2023-09-19T01:13:03;5.55;;;1.30;;
43519;SDS011;46848;51.980;5.918;2023-09-19T01:18:33;6.75;;;1.60;;
43519;SDS011;46848;51.980;5.918;2023-09-19T01:21:21;5.50;;;1.52;;
43519;SDS011;46848;51.980;5.918;2023-09-19T01:29:12;7.68;;;1.60;;
43519;SDS011;46848;51.980;5.918;2023-09-19T01:32:01;7.97;;;1.67;;
43519;SDS011;46848;51.980;5.918;2023-09-19T01:37:15;5.85;;;1.40;;
43519;SDS011;46848;51.980;5.918;2023-09-19T01:40:09;7.85;;;2.25;;
43519;SDS011;46848;51.980;5.918;2023-09-19T01:42:53;6.80;;;1.95;;
43519;SDS011;46848;51.980;5.918;2023-09-19T01:51:20;5.50;;;1.67;;
43519;SDS011;46848;51.980;5.918;2023-09-19T01:54:04;9.15;;;2.00;;
43519;SDS011;46848;51.980;5.918;2023-09-19T01:59:06;8.07;;;2.33;;
43519;SDS011;46848;51.980;5.918;2023-09-19T02:01:39;8.82;;;2.25;;
43519;SDS011;46848;51.980;5.918;2023-09-19T02:04:07;8.02;;;1.90;;
43519;SDS011;46848;51.980;5.918;2023-09-19T02:06:32;11.13;;;2.28;;
43519;SDS011;46848;51.980;5.918;2023-09-19T02:09:01;9.50;;;2.25;;
43519;SDS011;46848;51.980;5.918;2023-09-19T02:11:28;9.27;;;1.85;;
43519;SDS011;46848;51.980;5.918;2023-09-19T02:13:54;7.75;;;2.10;;
43519;SDS011;46848;51.980;5.918;2023-09-19T02:16:20;6.28;;;1.80;;
43519;SDS011;46848;51.980;5.918;2023-09-19T02:18:47;8.25;;;2.15;;
43519;SDS011;46848;51.980;5.918;2023-09-19T02:21:14;12.57;;;2.50;;
43519;SDS011;46848;51.980;5.918;2023-09-19T02:23:40;9.85;;;2.38;;
43519;SDS011;46848;51.980;5.918;2023-09-19T02:26:06;11.35;;;1.83;;
43519;SDS011;46848;51.980;5.918;2023-09-19T02:28:32;9.25;;;2.00;;
43519;SDS011;46848;51.980;5.918;2023-09-19T02:30:59;7.53;;;2.17;;
43519;SDS011;46848;51.980;5.918;2023-09-19T02:33:24;7.68;;;1.70;;
43519;SDS011;46848;51.980;5.918;2023-09-19T02:35:54;9.70;;;2.10;;
43519;SDS011;46848;51.980;5.918;2023-09-19T02:38:22;9.27;;;2.17;;
43519;SDS011;46848;51.980;5.918;2023-09-19T02:40:49;7.90;;;1.80;;
43519;SDS011;46848;51.980;5.918;2023-09-19T02:43:15;8.05;;;1.70;;
43519;SDS011;46848;51.980;5.918;2023-09-19T02:45:42;8.48;;;1.92;;
43519;SDS011;46848;51.980;5.918;2023-09-19T02:48:07;8.23;;;1.85;;
43519;SDS011;46848;51.980;5.918;2023-09-19T02:50:33;7.75;;;2.00;;
43519;SDS011;46848;51.980;5.918;2023-09-19T02:52:59;10.02;;;1.90;;
43519;SDS011;46848;51.980;5.918;2023-09-19T02:55:24;12.48;;;2.83;;
43519;SDS011;46848;51.980;5.918;2023-09-19T02:57:51;11.32;;;2.22;;
43519;SDS011;46848;51.980;5.918;2023-09-19T03:00:19;6.00;;;1.65;;
43519;SDS011;46848;51.980;5.918;2023-09-19T03:02:46;9.02;;;2.05;;
43519;SDS011;46848;51.980;5.918;2023-09-19T03:05:15;7.75;;;1.70;;
43519;SDS011;46848;51.980;5.918;2023-09-19T03:07:41;8.02;;;2.10;;
43519;SDS011;46848;51.980;5.918;2023-09-19T03:10:08;6.22;;;1.83;;
43519;SDS011;46848;51.980;5.918;2023-09-19T03:12:34;9.05;;;2.03;;
43519;SDS011;46848;51.980;5.918;2023-09-19T03:15:00;8.18;;;2.00;;
43519;SDS011;46848;51.980;5.918;2023-09-19T03:17:26;8.40;;;1.73;;
43519;SDS011;46848;51.980;5.918;2023-09-19T03:19:52;11.15;;;1.83;;
43519;SDS011;46848;51.980;5.918;2023-09-19T03:22:19;9.15;;;1.98;;
43519;SDS011;46848;51.980;5.918;2023-09-19T03:24:44;9.27;;;1.80;;
43519;SDS011;46848;51.980;5.918;2023-09-19T03:27:11;7.88;;;1.80;;
43519;SDS011;46848;51.980;5.918;2023-09-19T03:29:39;7.07;;;2.03;;
43519;SDS011;46848;51.980;5.918;2023-09-19T03:32:05;6.35;;;1.70;;
43519;SDS011;46848;51.980;5.918;2023-09-19T03:34:30;6.72;;;1.50;;
43519;SDS011;46848;51.980;5.918;2023-09-19T03:36:57;8.27;;;1.90;;
43519;SDS011;46848;51.980;5.918;2023-09-19T03:39:23;12.50;;;2.25;;
43519;SDS011;46848;51.980;5.918;2023-09-19T03:41:48;9.73;;;2.00;;
43519;SDS011;46848;51.980;5.918;2023-09-19T03:44:14;7.50;;;1.55;;
43519;SDS011;46848;51.980;5.918;2023-09-19T03:46:40;6.65;;;1.92;;
43519;SDS011;46848;51.980;5.918;2023-09-19T03:49:06;7.38;;;2.10;;
43519;SDS011;46848;51.980;5.918;2023-09-19T03:51:31;8.95;;;1.88;;
43519;SDS011;46848;51.980;5.918;2023-09-19T03:53:59;8.70;;;2.03;;
43519;SDS011;46848;51.980;5.918;2023-09-19T03:56:25;6.20;;;1.65;;
43519;SDS011;46848;51.980;5.918;2023-09-19T03:58:50;9.38;;;2.00;;
43519;SDS011;46848;51.980;5.918;2023-09-19T04:01:16;5.78;;;1.45;;
43519;SDS011;46848;51.980;5.918;2023-09-19T04:03:43;10.38;;;1.90;;
43519;SDS011;46848;51.980;5.918;2023-09-19T04:06:13;6.60;;;1.75;;
43519;SDS011;46848;51.980;5.918;2023-09-19T04:08:39;8.18;;;2.17;;
43519;SDS011;46848;51.980;5.918;2023-09-19T04:11:05;7.82;;;1.90;;
43519;SDS011;46848;51.980;5.918;2023-09-19T04:13:31;7.22;;;1.80;;
43519;SDS011;46848;51.980;5.918;2023-09-19T04:15:57;5.60;;;1.88;;
43519;SDS011;46848;51.980;5.918;2023-09-19T04:18:22;7.97;;;1.90;;
43519;SDS011;46848;51.980;5.918;2023-09-19T04:20:49;6.68;;;1.80;;
43519;SDS011;46848;51.980;5.918;2023-09-19T04:23:15;9.18;;;1.90;;
43519;SDS011;46848;51.980;5.918;2023-09-19T04:25:41;8.50;;;2.15;;
43519;SDS011;46848;51.980;5.918;2023-09-19T04:28:07;6.57;;;1.73;;
43519;SDS011;46848;51.980;5.918;2023-09-19T04:30:35;8.50;;;1.88;;
43519;SDS011;46848;51.980;5.918;2023-09-19T04:33:01;10.23;;;1.90;;
43519;SDS011;46848;51.980;5.918;2023-09-19T04:35:26;6.93;;;2.00;;
43519;SDS011;46848;51.980;5.918;2023-09-19T04:37:56;7.78;;;1.70;;
43519;SDS011;46848;51.980;5.918;2023-09-19T04:40:22;8.77;;;1.80;;
43519;SDS011;46848;51.980;5.918;2023-09-19T04:42:55;7.32;;;1.70;;
43519;SDS011;46848;51.980;5.918;2023-09-19T04:45:24;5.03;;;1.60;;
43519;SDS011;46848;51.980;5.918;2023-09-19T04:47:51;8.05;;;1.70;;
43519;SDS011;46848;51.980;5.918;2023-09-19T04:50:17;6.25;;;1.70;;
43519;SDS011;46848;51.980;5.918;2023-09-19T04:52:43;5.45;;;1.73;;
43519;SDS011;46848;51.980;5.918;2023-09-19T04:55:13;7.05;;;1.95;;
43519;SDS011;46848;51.980;5.918;2023-09-19T04:57:49;7.25;;;1.63;;
43519;SDS011;46848;51.980;5.918;2023-09-19T05:00:18;7.75;;;2.00;;
43519;SDS011;46848;51.980;5.918;2023-09-19T05:02:50;6.03;;;1.40;;
43519;SDS011;46848;51.980;5.918;2023-09-19T05:05:17;11.07;;;2.20;;
43519;SDS011;46848;51.980;5.918;2023-09-19T05:07:47;6.95;;;1.60;;
43519;SDS011;46848;51.980;5.918;2023-09-19T05:10:13;9.07;;;1.92;;
43519;SDS011;46848;51.980;5.918;2023-09-19T05:12:41;6.70;;;1.45;;
43519;SDS011;46848;51.980;5.918;2023-09-19T05:15:08;12.57;;;1.88;;
43519;SDS011;46848;51.980;5.918;2023-09-19T05:17:34;10.40;;;1.92;;
43519;SDS011;46848;51.980;5.918;2023-09-19T05:20:01;10.90;;;1.98;;
43519;SDS011;46848;51.980;5.918;2023-09-19T05:22:41;8.10;;;1.70;;
43519;SDS011;46848;51.980;5.918;2023-09-19T05:25:08;6.82;;;1.40;;
43519;SDS011;46848;51.980;5.918;2023-09-19T05:27:34;6.07;;;1.85;;
43519;SDS011;46848;51.980;5.918;2023-09-19T05:30:00;5.57;;;1.75;;
43519;SDS011;46848;51.980;5.918;2023-09-19T05:32:26;5.95;;;1.70;;
43519;SDS011;46848;51.980;5.918;2023-09-19T05:34:51;7.72;;;1.60;;
43519;SDS011;46848;51.980;5.918;2023-09-19T05:37:21;7.18;;;1.80;;
43519;SDS011;46848;51.980;5.918;2023-09-19T05:39:48;6.95;;;1.95;;
43519;SDS011;46848;51.980;5.918;2023-09-19T05:42:14;4.85;;;1.33;;
43519;SDS011;46848;51.980;5.918;2023-09-19T05:44:39;5.50;;;1.60;;
43519;SDS011;46848;51.980;5.918;2023-09-19T05:47:05;6.40;;;1.50;;
43519;SDS011;46848;51.980;5.918;2023-09-19T05:49:33;8.13;;;1.85;;
43519;SDS011;46848;51.980;5.918;2023-09-19T05:54:31;5.47;;;1.30;;
43519;SDS011;46848;51.980;5.918;2023-09-19T05:56:59;6.13;;;1.55;;
43519;SDS011;46848;51.980;5.918;2023-09-19T05:59:25;8.98;;;2.22;;
43519;SDS011;46848;51.980;5.918;2023-09-19T06:01:51;6.97;;;2.00;;
43519;SDS011;46848;51.980;5.918;2023-09-19T06:04:17;9.75;;;1.92;;
43519;SDS011;46848;51.980;5.918;2023-09-19T06:06:44;13.20;;;2.10;;
43519;SDS011;46848;51.980;5.918;2023-09-19T06:09:10;8.48;;;1.77;;
43519;SDS011;46848;51.980;5.918;2023-09-19T06:11:35;7.68;;;2.13;;
43519;SDS011;46848;51.980;5.918;2023-09-19T06:14:02;9.15;;;1.60;;
43519;SDS011;46848;51.980;5.918;2023-09-19T06:16:28;10.48;;;1.88;;
43519;SDS011;46848;51.980;5.918;2023-09-19T06:18:54;6.47;;;1.85;;
43519;SDS011;46848;51.980;5.918;2023-09-19T06:21:21;9.10;;;1.77;;
43519;SDS011;46848;51.980;5.918;2023-09-19T06:23:51;8.82;;;2.20;;
43519;SDS011;46848;51.980;5.918;2023-09-19T06:26:17;9.73;;;1.73;;
43519;SDS011;46848;51.980;5.918;2023-09-19T06:28:42;7.85;;;1.65;;
43519;SDS011;46848;51.980;5.918;2023-09-19T06:31:08;8.57;;;1.88;;
43519;SDS011;46848;51.980;5.918;2023-09-19T06:33:35;7.25;;;1.83;;
43519;SDS011;46848;51.980;5.918;2023-09-19T06:36:04;7.97;;;1.65;;
43519;SDS011;46848;51.980;5.918;2023-09-19T06:38:30;7.50;;;2.35;;
43519;SDS011;46848;51.980;5.918;2023-09-19T06:40:59;7.07;;;1.67;;
43519;SDS011;46848;51.980;5.918;2023-09-19T06:43:24;7.13;;;1.77;;
43519;SDS011;46848;51.980;5.918;2023-09-19T06:45:50;8.65;;;1.95;;
43519;SDS011;46848;51.980;5.918;2023-09-19T06:48:16;7.95;;;1.90;;
43519;SDS011;46848;51.980;5.918;2023-09-19T06:50:43;6.03;;;1.60;;
43519;SDS011;46848;51.980;5.918;2023-09-19T06:53:09;7.22;;;1.73;;
43519;SDS011;46848;51.980;5.918;2023-09-19T06:55:35;5.63;;;1.63;;
43519;SDS011;46848;51.980;5.918;2023-09-19T06:58:01;5.95;;;1.45;;
43519;SDS011;46848;51.980;5.918;2023-09-19T07:00:27;6.05;;;1.70;;
43519;SDS011;46848;51.980;5.918;2023-09-19T07:02:59;7.20;;;1.83;;
43519;SDS011;46848;51.980;5.918;2023-09-19T07:05:28;7.85;;;1.80;;
43519;SDS011;46848;51.980;5.918;2023-09-19T07:07:56;9.25;;;2.50;;
43519;SDS011;46848;51.980;5.918;2023-09-19T07:10:24;8.23;;;2.00;;
43519;SDS011;46848;51.980;5.918;2023-09-19T07:12:56;8.05;;;1.88;;
43519;SDS011;46848;51.980;5.918;2023-09-19T07:15:32;8.73;;;2.03;;
43519;SDS011;46848;51.980;5.918;2023-09-19T07:18:04;8.70;;;2.00;;
43519;SDS011;46848;51.980;5.918;2023-09-19T07:20:30;11.98;;;2.05;;
43519;SDS011;46848;51.980;5.918;2023-09-19T07:22:57;7.32;;;1.75;;
43519;SDS011;46848;51.980;5.918;2023-09-19T07:25:29;9.13;;;2.45;;
43519;SDS011;46848;51.980;5.918;2023-09-19T07:27:56;9.32;;;2.03;;
43519;SDS011;46848;51.980;5.918;2023-09-19T07:30:25;7.47;;;1.85;;
43519;SDS011;46848;51.980;5.918;2023-09-19T07:32:51;8.15;;;2.20;;
43519;SDS011;46848;51.980;5.918;2023-09-19T07:35:17;10.20;;;2.40;;
43519;SDS011;46848;51.980;5.918;2023-09-19T07:37:45;7.97;;;2.20;;
43519;SDS011;46848;51.980;5.918;2023-09-19T07:40:14;10.13;;;2.40;;
43519;SDS011;46848;51.980;5.918;2023-09-19T07:42:44;9.27;;;2.83;;
43519;SDS011;46848;51.980;5.918;2023-09-19T07:45:11;14.63;;;3.00;;
43519;SDS011;46848;51.980;5.918;2023-09-19T07:47:48;9.00;;;2.38;;
43519;SDS011;46848;51.980;5.918;2023-09-19T07:50:17;6.68;;;1.65;;
43519;SDS011;46848;51.980;5.918;2023-09-19T07:52:45;13.52;;;2.30;;
43519;SDS011;46848;51.980;5.918;2023-09-19T07:55:11;7.70;;;2.20;;
43519;SDS011;46848;51.980;5.918;2023-09-19T07:57:41;11.25;;;2.40;;
43519;SDS011;46848;51.980;5.918;2023-09-19T08:00:07;11.35;;;2.50;;
43519;SDS011;46848;51.980;5.918;2023-09-19T08:02:35;9.85;;;2.15;;
43519;SDS011;46848;51.980;5.918;2023-09-19T08:05:03;10.82;;;2.33;;
43519;SDS011;46848;51.980;5.918;2023-09-19T08:07:31;9.35;;;2.10;;
43519;SDS011;46848;51.980;5.918;2023-09-19T08:09:57;12.13;;;3.00;;
43519;SDS011;46848;51.980;5.918;2023-09-19T08:12:23;8.77;;;2.15;;
43519;SDS011;46848;51.980;5.918;2023-09-19T08:14:49;10.32;;;2.35;;
43519;SDS011;46848;51.980;5.918;2023-09-19T08:17:15;10.27;;;2.50;;
43519;SDS011;46848;51.980;5.918;2023-09-19T08:19:41;8.73;;;2.33;;
43519;SDS011;46848;51.980;5.918;2023-09-19T08:22:09;11.93;;;2.40;;
43519;SDS011;46848;51.980;5.918;2023-09-19T08:24:35;13.68;;;2.53;;
43519;SDS011;46848;51.980;5.918;2023-09-19T08:27:01;8.77;;;2.45;;
43519;SDS011;46848;51.980;5.918;2023-09-19T08:29:29;12.93;;;2.75;;
43519;SDS011;46848;51.980;5.918;2023-09-19T08:31:58;9.32;;;2.03;;
43519;SDS011;46848;51.980;5.918;2023-09-19T08:34:24;12.13;;;2.60;;
43519;SDS011;46848;51.980;5.918;2023-09-19T08:36:51;7.40;;;2.08;;
43519;SDS011;46848;51.980;5.918;2023-09-19T08:39:23;11.90;;;2.63;;
43519;SDS011;46848;51.980;5.918;2023-09-19T08:41:49;10.93;;;2.75;;
43519;SDS011;46848;51.980;5.918;2023-09-19T08:44:22;10.35;;;2.45;;
43519;SDS011;46848;51.980;5.918;2023-09-19T08:46:49;8.68;;;2.20;;
43519;SDS011;46848;51.980;5.918;2023-09-19T08:49:23;10.57;;;3.05;;
43519;SDS011;46848;51.980;5.918;2023-09-19T08:52:05;9.98;;;2.75;;
43519;SDS011;46848;51.980;5.918;2023-09-19T08:54:38;11.52;;;2.60;;
43519;SDS011;46848;51.980;5.918;2023-09-19T08:57:07;9.00;;;2.65;;
43519;SDS011;46848;51.980;5.918;2023-09-19T08:59:36;9.98;;;2.25;;
43519;SDS011;46848;51.980;5.918;2023-09-19T09:02:06;11.98;;;2.10;;
43519;SDS011;46848;51.980;5.918;2023-09-19T09:04:37;13.20;;;3.25;;
43519;SDS011;46848;51.980;5.918;2023-09-19T09:07:05;12.82;;;2.65;;
43519;SDS011;46848;51.980;5.918;2023-09-19T09:09:38;9.95;;;2.42;;
43519;SDS011;46848;51.980;5.918;2023-09-19T09:12:12;13.30;;;2.83;;
43519;SDS011;46848;51.980;5.918;2023-09-19T09:14:44;11.07;;;2.35;;
43519;SDS011;46848;51.980;5.918;2023-09-19T09:17:15;7.10;;;2.17;;
43519;SDS011;46848;51.980;5.918;2023-09-19T09:19:45;11.60;;;2.53;;
43519;SDS011;46848;51.980;5.918;2023-09-19T09:22:11;12.90;;;2.63;;
43519;SDS011;46848;51.980;5.918;2023-09-19T09:24:37;11.18;;;2.67;;
43519;SDS011;46848;51.980;5.918;2023-09-19T09:27:15;11.10;;;2.40;;
43519;SDS011;46848;51.980;5.918;2023-09-19T09:29:46;10.35;;;2.42;;
43519;SDS011;46848;51.980;5.918;2023-09-19T09:32:20;7.30;;;2.10;;
43519;SDS011;46848;51.980;5.918;2023-09-19T09:34:55;9.05;;;2.20;;
43519;SDS011;46848;51.980;5.918;2023-09-19T09:37:22;9.40;;;2.50;;
43519;SDS011;46848;51.980;5.918;2023-09-19T09:39:53;8.45;;;2.30;;
43519;SDS011;46848;51.980;5.918;2023-09-19T09:42:31;11.15;;;2.28;;
43519;SDS011;46848;51.980;5.918;2023-09-19T09:45:33;8.65;;;2.60;;
43519;SDS011;46848;51.980;5.918;2023-09-19T09:47:58;9.85;;;1.98;;
43519;SDS011;46848;51.980;5.918;2023-09-19T09:56:06;7.88;;;2.17;;
43519;SDS011;46848;51.980;5.918;2023-09-19T09:58:51;9.20;;;2.22;;
43519;SDS011;46848;51.980;5.918;2023-09-19T10:01:24;8.25;;;1.90;;
43519;SDS011;46848;51.980;5.918;2023-09-19T10:03:56;9.68;;;2.63;;
43519;SDS011;46848;51.980;5.918;2023-09-19T10:06:23;8.18;;;2.33;;
43519;SDS011;46848;51.980;5.918;2023-09-19T10:09:01;10.73;;;2.28;;
43519;SDS011;46848;51.980;5.918;2023-09-19T10:11:36;9.65;;;2.30;;
43519;SDS011;46848;51.980;5.918;2023-09-19T10:14:05;10.63;;;2.92;;
43519;SDS011;46848;51.980;5.918;2023-09-19T10:16:35;9.77;;;2.80;;
43519;SDS011;46848;51.980;5.918;2023-09-19T10:19:06;9.03;;;2.53;;
43519;SDS011;46848;51.980;5.918;2023-09-19T10:21:34;11.95;;;2.30;;
43519;SDS011;46848;51.980;5.918;2023-09-19T10:24:01;9.13;;;2.63;;
43519;SDS011;46848;51.980;5.918;2023-09-19T10:26:32;6.55;;;2.10;;
43519;SDS011;46848;51.980;5.918;2023-09-19T10:29:01;11.98;;;2.42;;
43519;SDS011;46848;51.980;5.918;2023-09-19T10:31:28;10.07;;;2.00;;
43519;SDS011;46848;51.980;5.918;2023-09-19T10:34:03;9.20;;;2.63;;
43519;SDS011;46848;51.980;5.918;2023-09-19T10:36:31;10.23;;;2.30;;
43519;SDS011;46848;51.980;5.918;2023-09-19T10:39:01;10.82;;;2.17;;
43519;SDS011;46848;51.980;5.918;2023-09-19T10:41:29;8.60;;;2.03;;
43519;SDS011;46848;51.980;5.918;2023-09-19T10:43:59;9.93;;;2.17;;
43519;SDS011;46848;51.980;5.918;2023-09-19T10:46:34;11.60;;;2.08;;
43519;SDS011;46848;51.980;5.918;2023-09-19T10:49:03;8.50;;;2.17;;
43519;SDS011;46848;51.980;5.918;2023-09-19T10:51:30;9.88;;;2.15;;
43519;SDS011;46848;51.980;5.918;2023-09-19T10:54:10;10.45;;;2.40;;
43519;SDS011;46848;51.980;5.918;2023-09-19T10:56:41;8.77;;;2.30;;
43519;SDS011;46848;51.980;5.918;2023-09-19T10:59:12;13.55;;;2.38;;
43519;SDS011;46848;51.980;5.918;2023-09-19T11:07:10;9.68;;;2.00;;
43519;SDS011;46848;51.980;5.918;2023-09-19T11:09:53;7.57;;;1.73;;
43519;SDS011;46848;51.980;5.918;2023-09-19T11:30:32;7.88;;;1.92;;
43519;SDS011;46848;51.980;5.918;2023-09-19T11:33:17;10.32;;;2.33;;
43519;SDS011;46848;51.980;5.918;2023-09-19T11:49:17;8.80;;;1.90;;
43519;SDS011;46848;51.980;5.918;2023-09-19T11:51:48;9.25;;;1.95;;
43519;SDS011;46848;51.980;5.918;2023-09-19T11:54:16;8.07;;;1.92;;
43519;SDS011;46848;51.980;5.918;2023-09-19T11:56:50;7.15;;;1.90;;
43519;SDS011;46848;51.980;5.918;2023-09-19T11:59:20;10.48;;;1.90;;
43519;SDS011;46848;51.980;5.918;2023-09-19T12:01:51;5.77;;;1.90;;
43519;SDS011;46848;51.980;5.918;2023-09-19T12:04:36;6.05;;;1.80;;
43519;SDS011;46848;51.980;5.918;2023-09-19T12:07:07;6.57;;;1.70;;
43519;SDS011;46848;51.980;5.918;2023-09-19T12:09:40;5.70;;;1.20;;
43519;SDS011;46848;51.980;5.918;2023-09-19T12:12:22;4.53;;;1.20;;
43519;SDS011;46848;51.980;5.918;2023-09-19T12:14:52;6.28;;;1.60;;
43519;SDS011;46848;51.980;5.918;2023-09-19T12:17:18;5.72;;;1.75;;
43519;SDS011;46848;51.980;5.918;2023-09-19T12:19:51;7.43;;;1.33;;
43519;SDS011;46848;51.980;5.918;2023-09-19T12:22:17;7.65;;;1.90;;
43519;SDS011;46848;51.980;5.918;2023-09-19T12:24:44;6.32;;;1.60;;
43519;SDS011;46848;51.980;5.918;2023-09-19T12:27:10;7.53;;;1.60;;
43519;SDS011;46848;51.980;5.918;2023-09-19T12:29:43;4.93;;;1.23;;
43519;SDS011;46848;51.980;5.918;2023-09-19T12:32:19;6.20;;;1.30;;
43519;SDS011;46848;51.980;5.918;2023-09-19T12:35:05;5.88;;;1.80;;
43519;SDS011;46848;51.980;5.918;2023-09-19T12:37:36;6.05;;;1.52;;
43519;SDS011;46848;51.980;5.918;2023-09-19T12:40:03;5.78;;;1.10;;
43519;SDS011;46848;51.980;5.918;2023-09-19T12:42:43;3.25;;;1.00;;
43519;SDS011;46848;51.980;5.918;2023-09-19T12:45:10;4.65;;;1.17;;
43519;SDS011;46848;51.980;5.918;2023-09-19T12:47:38;6.38;;;1.20;;
43519;SDS011;46848;51.980;5.918;2023-09-19T12:55:28;7.45;;;1.50;;
43519;SDS011;46848;51.980;5.918;2023-09-19T13:00:41;3.80;;;1.02;;
43519;SDS011;46848;51.980;5.918;2023-09-19T13:03:24;6.15;;;1.08;;
43519;SDS011;46848;51.980;5.918;2023-09-19T13:16:20;5.07;;;1.10;;
43519;SDS011;46848;51.980;5.918;2023-09-19T13:18:51;6.53;;;1.40;;
43519;SDS011;46848;51.980;5.918;2023-09-19T13:21:34;5.07;;;1.15;;
43519;SDS011;46848;51.980;5.918;2023-09-19T13:26:46;5.18;;;1.02;;
43519;SDS011;46848;51.980;5.918;2023-09-19T13:29:12;5.35;;;1.10;;
43519;SDS011;46848;51.980;5.918;2023-09-19T13:31:55;2.70;;;0.80;;
43519;SDS011;46848;51.980;5.918;2023-09-19T13:34:21;7.75;;;1.70;;
43519;SDS011;46848;51.980;5.918;2023-09-19T13:36:46;7.25;;;1.20;;
43519;SDS011;46848;51.980;5.918;2023-09-19T13:39:15;3.60;;;1.00;;
43519;SDS011;46848;51.980;5.918;2023-09-19T13:41:43;3.95;;;1.00;;
43519;SDS011;46848;51.980;5.918;2023-09-19T13:44:11;5.80;;;1.00;;
43519;SDS011;46848;51.980;5.918;2023-09-19T13:46:37;5.55;;;0.73;;
43519;SDS011;46848;51.980;5.918;2023-09-19T13:49:03;2.90;;;0.70;;
43519;SDS011;46848;51.980;5.918;2023-09-19T13:51:29;4.22;;;0.70;;
43519;SDS011;46848;51.980;5.918;2023-09-19T13:53:57;5.40;;;0.93;;
43519;SDS011;46848;51.980;5.918;2023-09-19T13:56:24;3.05;;;0.85;;
43519;SDS011;46848;51.980;5.918;2023-09-19T13:58:52;4.32;;;0.98;;
43519;SDS011;46848;51.980;5.918;2023-09-19T14:01:18;5.40;;;0.90;;
43519;SDS011;46848;51.980;5.918;2023-09-19T14:03:44;3.95;;;0.80;;
43519;SDS011;46848;51.980;5.918;2023-09-19T14:06:16;4.63;;;1.08;;
43519;SDS011;46848;51.980;5.918;2023-09-19T14:08:42;2.20;;;0.52;;
43519;SDS011;46848;51.980;5.918;2023-09-19T14:11:12;5.25;;;0.80;;
43519;SDS011;46848;51.980;5.918;2023-09-19T14:13:39;3.88;;;0.98;;
43519;SDS011;46848;51.980;5.918;2023-09-19T14:16:08;4.10;;;0.80;;
43519;SDS011;46848;51.980;5.918;2023-09-19T14:18:35;4.97;;;0.80;;
43519;SDS011;46848;51.980;5.918;2023-09-19T14:21:04;3.03;;;0.88;;
43519;SDS011;46848;51.980;5.918;2023-09-19T14:23:36;4.45;;;1.08;;
43519;SDS011;46848;51.980;5.918;2023-09-19T14:26:02;5.47;;;1.00;;
43519;SDS011;46848;51.980;5.918;2023-09-19T14:28:30;3.45;;;0.77;;
43519;SDS011;46848;51.980;5.918;2023-09-19T14:30:55;4.85;;;0.80;;
43519;SDS011;46848;51.980;5.918;2023-09-19T14:33:21;3.95;;;0.90;;
43519;SDS011;46848;51.980;5.918;2023-09-19T14:35:48;2.78;;;0.88;;
43519;SDS011;46848;51.980;5.918;2023-09-19T14:38:14;4.28;;;0.82;;
43519;SDS011;46848;51.980;5.918;2023-09-19T14:40:39;3.03;;;1.00;;
43519;SDS011;46848;51.980;5.918;2023-09-19T14:43:05;3.17;;;0.82;;
43519;SDS011;46848;51.980;5.918;2023-09-19T14:45:35;5.82;;;1.10;;
43519;SDS011;46848;51.980;5.918;2023-09-19T14:48:01;6.50;;;1.38;;
43519;SDS011;46848;51.980;5.918;2023-09-19T14:50:30;5.05;;;0.68;;
43519;SDS011;46848;51.980;5.918;2023-09-19T14:52:56;6.25;;;1.30;;
43519;SDS011;46848;51.980;5.918;2023-09-19T14:55:23;3.65;;;0.90;;
43519;SDS011;46848;51.980;5.918;2023-09-19T14:57:49;4.18;;;0.98;;
43519;SDS011;46848;51.980;5.918;2023-09-19T15:00:16;5.00;;;1.02;;
43519;SDS011;46848;51.980;5.918;2023-09-19T15:02:44;4.13;;;0.98;;
43519;SDS011;46848;51.980;5.918;2023-09-19T15:05:10;3.47;;;1.02;;
43519;SDS011;46848;51.980;5.918;2023-09-19T15:07:36;4.85;;;1.00;;
43519;SDS011;46848;51.980;5.918;2023-09-19T15:10:04;2.97;;;0.70;;
43519;SDS011;46848;51.980;5.918;2023-09-19T15:12:32;4.22;;;1.02;;
43519;SDS011;46848;51.980;5.918;2023-09-19T15:14:58;2.75;;;0.90;;
43519;SDS011;46848;51.980;5.918;2023-09-19T15:17:23;6.70;;;1.20;;
43519;SDS011;46848;51.980;5.918;2023-09-19T15:19:50;3.60;;;1.08;;
43519;SDS011;46848;51.980;5.918;2023-09-19T15:22:16;4.03;;;0.85;;
43519;SDS011;46848;51.980;5.918;2023-09-19T15:24:41;5.65;;;1.17;;
43519;SDS011;46848;51.980;5.918;2023-09-19T15:27:07;5.72;;;1.20;;
43519;SDS011;46848;51.980;5.918;2023-09-19T15:29:33;4.22;;;1.35;;
43519;SDS011;46848;51.980;5.918;2023-09-19T15:31:58;4.18;;;1.10;;
43519;SDS011;46848;51.980;5.918;2023-09-19T15:34:27;3.45;;;0.95;;
43519;SDS011;46848;51.980;5.918;2023-09-19T15:36:54;4.75;;;1.05;;
43519;SDS011;46848;51.980;5.918;2023-09-19T15:39:19;6.10;;;1.10;;
43519;SDS011;46848;51.980;5.918;2023-09-19T15:41:47;3.38;;;0.93;;
43519;SDS011;46848;51.980;5.918;2023-09-19T15:44:16;4.72;;;1.40;;
43519;SDS011;46848;51.980;5.918;2023-09-19T15:46:43;3.03;;;0.90;;
43519;SDS011;46848;51.980;5.918;2023-09-19T15:49:09;4.85;;;1.05;;
43519;SDS011;46848;51.980;5.918;2023-09-19T15:51:36;4.63;;;0.88;;
43519;SDS011;46848;51.980;5.918;2023-09-19T15:54:06;5.82;;;2.25;;
43519;SDS011;46848;51.980;5.918;2023-09-19T15:56:38;5.40;;;1.27;;
43519;SDS011;46848;51.980;5.918;2023-09-19T15:59:06;2.78;;;1.00;;
43519;SDS011;46848;51.980;5.918;2023-09-19T16:01:34;4.38;;;1.00;;
43519;SDS011;46848;51.980;5.918;2023-09-19T16:03:59;3.90;;;0.98;;
43519;SDS011;46848;51.980;5.918;2023-09-19T16:06:26;5.28;;;1.25;;
43519;SDS011;46848;51.980;5.918;2023-09-19T16:08:56;4.07;;;1.15;;
43519;SDS011;46848;51.980;5.918;2023-09-19T16:11:24;4.68;;;1.20;;
43519;SDS011;46848;51.980;5.918;2023-09-19T16:13:50;3.55;;;1.08;;
43519;SDS011;46848;51.980;5.918;2023-09-19T16:16:18;6.97;;;1.10;;
43519;SDS011;46848;51.980;5.918;2023-09-19T16:18:54;5.07;;;1.02;;
43519;SDS011;46848;51.980;5.918;2023-09-19T16:21:25;4.38;;;1.10;;